sensor_id;sensor_type;location;lat;lon;timestamp;pressure;altitude;pressure_sealevel;temperature;humidity
48527;BME280;34317;51.660;5.824;2024-03-02T00:00:22;99793.56;;;12.29;50.44
48527;BME280;34317;51.660;5.824;2024-03-02T00:02:52;99787.25;;;12.30;50.52
48527;BME280;34317;51.660;5.824;2024-03-02T00:05:22;99784.63;;;12.30;50.50
48527;BME280;34317;51.660;5.824;2024-03-02T00:12:15;99796.31;;;12.27;50.54
48527;BME280;34317;51.660;5.824;2024-03-02T00:14:43;99801.63;;;12.27;50.65
48527;BME280;34317;51.660;5.824;2024-03-02T00:17:17;99793.56;;;12.29;50.58
48527;BME280;34317;51.660;5.824;2024-03-02T00:19:51;99801.41;;;12.30;50.57
48527;BME280;34317;51.660;5.824;2024-03-02T00:22:19;99791.63;;;12.31;50.59
48527;BME280;34317;51.660;5.824;2024-03-02T00:24:47;99796.72;;;12.34;50.54
48527;BME280;34317;51.660;5.824;2024-03-02T00:27:15;99799.28;;;12.35;50.62
48527;BME280;34317;51.660;5.824;2024-03-02T00:29:45;99810.53;;;12.39;50.60
48527;BME280;34317;51.660;5.824;2024-03-02T00:32:13;99802.56;;;12.39;50.56
48527;BME280;34317;51.660;5.824;2024-03-02T00:34:41;99797.16;;;12.40;50.58
48527;BME280;34317;51.660;5.824;2024-03-02T00:37:08;99803.31;;;12.41;50.56
48527;BME280;34317;51.660;5.824;2024-03-02T00:39:36;99805.84;;;12.42;50.41
48527;BME280;34317;51.660;5.824;2024-03-02T00:42:05;99808.41;;;12.44;50.63
48527;BME280;34317;51.660;5.824;2024-03-02T00:44:33;99810.09;;;12.45;50.46
48527;BME280;34317;51.660;5.824;2024-03-02T00:47:03;99811.81;;;12.46;50.63
48527;BME280;34317;51.660;5.824;2024-03-02T00:49:30;99815.22;;;12.48;50.53
48527;BME280;34317;51.660;5.824;2024-03-02T00:51:58;99823.91;;;12.50;50.58
48527;BME280;34317;51.660;5.824;2024-03-02T00:54:26;99840.59;;;12.52;50.58
48527;BME280;34317;51.660;5.824;2024-03-02T00:56:54;99861.63;;;12.55;50.63
48527;BME280;34317;51.660;5.824;2024-03-02T00:59:24;99887.22;;;12.56;50.83
48527;BME280;34317;51.660;5.824;2024-03-02T01:01:52;99892.34;;;12.59;50.70
48527;BME280;34317;51.660;5.824;2024-03-02T01:04:19;99904.69;;;12.60;50.69
48527;BME280;34317;51.660;5.824;2024-03-02T01:06:46;99901.28;;;12.58;50.85
48527;BME280;34317;51.660;5.824;2024-03-02T01:09:15;99912.84;;;12.57;50.76
48527;BME280;34317;51.660;5.824;2024-03-02T01:11:43;99910.38;;;12.54;50.99
48527;BME280;34317;51.660;5.824;2024-03-02T01:14:11;99907.00;;;12.52;51.14
48527;BME280;34317;51.660;5.824;2024-03-02T01:16:38;99914.22;;;12.50;51.25
48527;BME280;34317;51.660;5.824;2024-03-02T01:19:06;99916.13;;;12.48;51.32
48527;BME280;34317;51.660;5.824;2024-03-02T01:21:33;99911.78;;;12.47;51.41
48527;BME280;34317;51.660;5.824;2024-03-02T01:24:00;99911.00;;;12.45;51.38
48527;BME280;34317;51.660;5.824;2024-03-02T01:26:28;99912.81;;;12.44;51.83
48527;BME280;34317;51.660;5.824;2024-03-02T01:28:55;99912.91;;;12.43;51.63
48527;BME280;34317;51.660;5.824;2024-03-02T01:31:23;99912.91;;;12.43;51.71
48527;BME280;34317;51.660;5.824;2024-03-02T01:33:50;99903.38;;;12.40;51.67
48527;BME280;34317;51.660;5.824;2024-03-02T01:36:18;99918.47;;;12.40;51.71
48527;BME280;34317;51.660;5.824;2024-03-02T01:38:45;99910.59;;;12.38;51.61
48527;BME280;34317;51.660;5.824;2024-03-02T01:41:12;99909.75;;;12.38;51.63
48527;BME280;34317;51.660;5.824;2024-03-02T01:43:40;99911.66;;;12.36;51.71
48527;BME280;34317;51.660;5.824;2024-03-02T01:46:08;99903.88;;;12.33;51.69
48527;BME280;34317;51.660;5.824;2024-03-02T01:48:36;99895.94;;;12.33;51.57
48527;BME280;34317;51.660;5.824;2024-03-02T01:51:03;99898.59;;;12.33;51.70
48527;BME280;34317;51.660;5.824;2024-03-02T01:53:37;99897.84;;;12.31;51.56
48527;BME280;34317;51.660;5.824;2024-03-02T01:56:04;99903.25;;;12.29;51.58
48527;BME280;34317;51.660;5.824;2024-03-02T01:58:32;99889.97;;;12.29;51.66
48527;BME280;34317;51.660;5.824;2024-03-02T02:00:59;99898.88;;;12.28;51.58
48527;BME280;34317;51.660;5.824;2024-03-02T02:03:27;99899.00;;;12.26;51.55
48527;BME280;34317;51.660;5.824;2024-03-02T02:05:54;99887.63;;;12.24;51.56
48527;BME280;34317;51.660;5.824;2024-03-02T02:08:22;99886.91;;;12.22;51.36
48527;BME280;34317;51.660;5.824;2024-03-02T02:10:49;99889.56;;;12.22;51.72
48527;BME280;34317;51.660;5.824;2024-03-02T02:13:16;99886.91;;;12.22;51.58
48527;BME280;34317;51.660;5.824;2024-03-02T02:15:44;99875.31;;;12.23;51.64
48527;BME280;34317;51.660;5.824;2024-03-02T02:18:11;99878.94;;;12.22;51.73
48527;BME280;34317;51.660;5.824;2024-03-02T02:20:38;99893.16;;;12.21;51.60
48527;BME280;34317;51.660;5.824;2024-03-02T02:23:06;99879.97;;;12.20;51.63
48527;BME280;34317;51.660;5.824;2024-03-02T02:25:38;99887.19;;;12.18;51.88
48527;BME280;34317;51.660;5.824;2024-03-02T02:28:06;99893.56;;;12.15;51.58
48527;BME280;34317;51.660;5.824;2024-03-02T02:30:33;99896.31;;;12.14;51.91
48527;BME280;34317;51.660;5.824;2024-03-02T02:33:02;99890.16;;;12.13;51.83
48527;BME280;34317;51.660;5.824;2024-03-02T02:35:30;99893.75;;;12.12;51.95
48527;BME280;34317;51.660;5.824;2024-03-02T02:37:58;99892.06;;;12.11;51.95
48527;BME280;34317;51.660;5.824;2024-03-02T02:40:58;99897.56;;;12.08;51.84
48527;BME280;34317;51.660;5.824;2024-03-02T02:43:25;99892.47;;;12.05;52.08
48527;BME280;34317;51.660;5.824;2024-03-02T02:45:54;99896.09;;;12.04;52.12
48527;BME280;34317;51.660;5.824;2024-03-02T02:48:21;99882.25;;;11.99;52.00
48527;BME280;34317;51.660;5.824;2024-03-02T02:50:49;99879.78;;;11.96;52.13
48527;BME280;34317;51.660;5.824;2024-03-02T02:53:24;99877.38;;;11.93;52.25
48527;BME280;34317;51.660;5.824;2024-03-02T02:55:51;99882.88;;;11.90;52.20
48527;BME280;34317;51.660;5.824;2024-03-02T02:58:20;99888.16;;;11.90;52.32
48527;BME280;34317;51.660;5.824;2024-03-02T03:00:47;99877.72;;;11.86;52.46
48527;BME280;34317;51.660;5.824;2024-03-02T03:03:16;99872.63;;;11.83;52.27
48527;BME280;34317;51.660;5.824;2024-03-02T03:05:43;99874.53;;;11.81;52.56
48527;BME280;34317;51.660;5.824;2024-03-02T03:08:17;99870.41;;;11.77;52.63
48527;BME280;34317;51.660;5.824;2024-03-02T03:10:44;99886.31;;;11.77;52.85
48527;BME280;34317;51.660;5.824;2024-03-02T03:13:12;99903.16;;;11.76;52.87
48527;BME280;34317;51.660;5.824;2024-03-02T03:15:40;99912.06;;;11.75;52.93
48527;BME280;34317;51.660;5.824;2024-03-02T03:18:08;99894.66;;;11.71;52.93
48527;BME280;34317;51.660;5.824;2024-03-02T03:20:50;99901.00;;;11.68;52.84
48527;BME280;34317;51.660;5.824;2024-03-02T03:23:17;99893.16;;;11.67;53.28
48527;BME280;34317;51.660;5.824;2024-03-02T03:25:44;99907.38;;;11.66;53.18
48527;BME280;34317;51.660;5.824;2024-03-02T03:28:12;99902.91;;;11.66;53.33
48527;BME280;34317;51.660;5.824;2024-03-02T03:30:39;99905.66;;;11.65;53.23
48527;BME280;34317;51.660;5.824;2024-03-02T03:33:06;99919.84;;;11.64;53.12
48527;BME280;34317;51.660;5.824;2024-03-02T03:35:34;99905.84;;;11.62;53.31
48527;BME280;34317;51.660;5.824;2024-03-02T03:38:02;99917.41;;;11.61;53.35
48527;BME280;34317;51.660;5.824;2024-03-02T03:40:29;99921.97;;;11.59;53.20
48527;BME280;34317;51.660;5.824;2024-03-02T03:42:56;99920.25;;;11.58;53.29
48527;BME280;34317;51.660;5.824;2024-03-02T03:45:24;99914.97;;;11.58;53.38
48527;BME280;34317;51.660;5.824;2024-03-02T03:47:53;99907.97;;;11.57;53.42
48527;BME280;34317;51.660;5.824;2024-03-02T03:50:23;99902.66;;;11.57;53.48
48527;BME280;34317;51.660;5.824;2024-03-02T03:52:51;99913.28;;;11.57;53.17
48527;BME280;34317;51.660;5.824;2024-03-02T03:55:18;99941.69;;;11.55;53.48
48527;BME280;34317;51.660;5.824;2024-03-02T03:57:46;99947.19;;;11.52;53.56
48527;BME280;34317;51.660;5.824;2024-03-02T04:00:14;99946.34;;;11.51;53.70
48527;BME280;34317;51.660;5.824;2024-03-02T04:02:42;99942.81;;;11.50;53.64
48527;BME280;34317;51.660;5.824;2024-03-02T04:05:09;99926.16;;;11.48;53.59
48527;BME280;34317;51.660;5.824;2024-03-02T04:07:38;99919.16;;;11.47;53.86
48527;BME280;34317;51.660;5.824;2024-03-02T04:10:11;99905.16;;;11.45;53.78
48527;BME280;34317;51.660;5.824;2024-03-02T04:12:39;99921.06;;;11.45;53.96
48527;BME280;34317;51.660;5.824;2024-03-02T04:15:07;99924.66;;;11.44;53.95
48527;BME280;34317;51.660;5.824;2024-03-02T04:17:35;99923.81;;;11.44;53.73
48527;BME280;34317;51.660;5.824;2024-03-02T04:20:04;99914.03;;;11.44;53.99
48527;BME280;34317;51.660;5.824;2024-03-02T04:22:35;99928.25;;;11.43;53.86
48527;BME280;34317;51.660;5.824;2024-03-02T04:25:03;99931.84;;;11.42;53.85
48527;BME280;34317;51.660;5.824;2024-03-02T04:27:31;99933.75;;;11.40;53.73
48527;BME280;34317;51.660;5.824;2024-03-02T04:30:00;99926.72;;;11.39;53.85
48527;BME280;34317;51.660;5.824;2024-03-02T04:32:28;99922.47;;;11.37;53.97
48527;BME280;34317;51.660;5.824;2024-03-02T04:34:55;99928.63;;;11.37;53.98
48527;BME280;34317;51.660;5.824;2024-03-02T04:37:22;99929.59;;;11.36;53.84
48527;BME280;34317;51.660;5.824;2024-03-02T04:39:50;99928.84;;;11.34;53.73
48527;BME280;34317;51.660;5.824;2024-03-02T04:42:17;99925.44;;;11.32;53.81
48527;BME280;34317;51.660;5.824;2024-03-02T04:44:45;99929.03;;;11.31;53.68
48527;BME280;34317;51.660;5.824;2024-03-02T04:47:12;99934.50;;;11.28;53.74
48527;BME280;34317;51.660;5.824;2024-03-02T04:49:39;99936.41;;;11.26;53.70
48527;BME280;34317;51.660;5.824;2024-03-02T04:52:08;99931.31;;;11.23;53.78
48527;BME280;34317;51.660;5.824;2024-03-02T04:54:35;99931.50;;;11.20;53.66
48527;BME280;34317;51.660;5.824;2024-03-02T04:57:26;99937.72;;;11.19;53.79
48527;BME280;34317;51.660;5.824;2024-03-02T04:59:54;99941.34;;;11.18;53.72
48527;BME280;34317;51.660;5.824;2024-03-02T05:02:24;99947.56;;;11.17;53.70
48527;BME280;34317;51.660;5.824;2024-03-02T05:04:51;99947.56;;;11.17;53.78
48527;BME280;34317;51.660;5.824;2024-03-02T05:07:18;99956.50;;;11.16;53.74
48527;BME280;34317;51.660;5.824;2024-03-02T05:09:46;99960.06;;;11.15;53.63
48527;BME280;34317;51.660;5.824;2024-03-02T05:12:15;99960.06;;;11.15;53.88
48527;BME280;34317;51.660;5.824;2024-03-02T05:15:02;99951.38;;;11.13;53.86
48527;BME280;34317;51.660;5.824;2024-03-02T05:17:32;99949.69;;;11.12;53.83
48527;BME280;34317;51.660;5.824;2024-03-02T05:19:59;99960.28;;;11.12;54.04
48527;BME280;34317;51.660;5.824;2024-03-02T05:22:30;99954.97;;;11.12;53.83
48527;BME280;34317;51.660;5.824;2024-03-02T05:24:57;99961.22;;;11.10;53.97
48527;BME280;34317;51.660;5.824;2024-03-02T05:27:27;99960.47;;;11.08;53.92
48527;BME280;34317;51.660;5.824;2024-03-02T05:29:54;99965.75;;;11.08;53.68
48527;BME280;34317;51.660;5.824;2024-03-02T05:32:21;99967.56;;;11.08;53.84
48527;BME280;34317;51.660;5.824;2024-03-02T05:34:49;99971.06;;;11.08;53.98
48527;BME280;34317;51.660;5.824;2024-03-02T05:37:18;99971.06;;;11.08;53.94
48527;BME280;34317;51.660;5.824;2024-03-02T05:39:45;99978.06;;;11.09;53.88
48527;BME280;34317;51.660;5.824;2024-03-02T05:42:17;99974.63;;;11.07;53.88
48527;BME280;34317;51.660;5.824;2024-03-02T05:44:44;99971.06;;;11.08;53.94
48527;BME280;34317;51.660;5.824;2024-03-02T05:47:12;99971.06;;;11.08;53.78
48527;BME280;34317;51.660;5.824;2024-03-02T05:49:47;99966.69;;;11.07;53.79
48527;BME280;34317;51.660;5.824;2024-03-02T05:52:14;99980.81;;;11.08;53.70
48527;BME280;34317;51.660;5.824;2024-03-02T05:54:41;99972.94;;;11.06;53.79
48527;BME280;34317;51.660;5.824;2024-03-02T05:57:10;99974.84;;;11.04;53.65
48527;BME280;34317;51.660;5.824;2024-03-02T05:59:56;99973.22;;;11.02;53.62
48527;BME280;34317;51.660;5.824;2024-03-02T06:02:23;99978.63;;;11.00;53.81
48527;BME280;34317;51.660;5.824;2024-03-02T06:04:54;99978.81;;;10.97;53.85
48527;BME280;34317;51.660;5.824;2024-03-02T06:07:22;99980.69;;;10.95;53.73
48527;BME280;34317;51.660;5.824;2024-03-02T06:09:49;99987.91;;;10.93;53.74
48527;BME280;34317;51.660;5.824;2024-03-02T06:12:22;99995.09;;;10.91;53.81
48527;BME280;34317;51.660;5.824;2024-03-02T06:14:49;99992.59;;;10.88;53.70
48527;BME280;34317;51.660;5.824;2024-03-02T06:17:16;99998.88;;;10.87;53.52
48527;BME280;34317;51.660;5.824;2024-03-02T06:19:48;99995.44;;;10.85;53.73
48527;BME280;34317;51.660;5.824;2024-03-02T06:22:16;99999.97;;;10.83;53.84
48527;BME280;34317;51.660;5.824;2024-03-02T06:24:43;99993.16;;;10.79;53.97
48527;BME280;34317;51.660;5.824;2024-03-02T06:27:10;100005.81;;;10.74;53.66
48527;BME280;34317;51.660;5.824;2024-03-02T06:29:39;100003.38;;;10.70;53.87
48527;BME280;34317;51.660;5.824;2024-03-02T06:32:06;100007.97;;;10.67;53.98
48527;BME280;34317;51.660;5.824;2024-03-02T06:34:59;100009.03;;;10.64;53.87
48527;BME280;34317;51.660;5.824;2024-03-02T06:37:27;100015.25;;;10.63;53.96
48527;BME280;34317;51.660;5.824;2024-03-02T06:39:54;100016.19;;;10.62;54.16
48527;BME280;34317;51.660;5.824;2024-03-02T06:42:27;100018.81;;;10.62;54.08
48527;BME280;34317;51.660;5.824;2024-03-02T06:45:01;100014.50;;;10.61;54.17
48527;BME280;34317;51.660;5.824;2024-03-02T06:47:28;100022.44;;;10.61;54.13
48527;BME280;34317;51.660;5.824;2024-03-02T06:49:55;100019.78;;;10.61;54.06
48527;BME280;34317;51.660;5.824;2024-03-02T06:52:24;100028.66;;;10.60;53.90
48527;BME280;34317;51.660;5.824;2024-03-02T06:54:51;100032.06;;;10.62;53.97
48527;BME280;34317;51.660;5.824;2024-03-02T06:57:22;100021.47;;;10.62;53.92
48527;BME280;34317;51.660;5.824;2024-03-02T06:59:51;100019.69;;;10.63;54.08
48527;BME280;34317;51.660;5.824;2024-03-02T07:02:24;100024.91;;;10.64;53.83
48527;BME280;34317;51.660;5.824;2024-03-02T07:04:54;100021.31;;;10.65;54.13
48527;BME280;34317;51.660;5.824;2024-03-02T07:07:21;100029.16;;;10.67;54.32
48527;BME280;34317;51.660;5.824;2024-03-02T07:09:49;100031.53;;;10.71;54.16
48527;BME280;34317;51.660;5.824;2024-03-02T07:12:16;100036.66;;;10.75;54.24
48527;BME280;34317;51.660;5.824;2024-03-02T07:14:44;100040.91;;;10.77;54.14
48527;BME280;34317;51.660;5.824;2024-03-02T07:17:31;100043.38;;;10.80;54.34
48527;BME280;34317;51.660;5.824;2024-03-02T07:19:59;100042.47;;;10.81;54.29
48527;BME280;34317;51.660;5.824;2024-03-02T07:22:26;100051.06;;;10.85;54.40
48527;BME280;34317;51.660;5.824;2024-03-02T07:24:54;100050.13;;;10.86;54.16
48527;BME280;34317;51.660;5.824;2024-03-02T07:27:21;100049.94;;;10.89;54.12
48527;BME280;34317;51.660;5.824;2024-03-02T07:29:51;100055.06;;;10.92;54.15
48527;BME280;34317;51.660;5.824;2024-03-02T07:32:18;100051.47;;;10.93;54.22
48527;BME280;34317;51.660;5.824;2024-03-02T07:34:46;100052.22;;;10.95;54.23
48527;BME280;34317;51.660;5.824;2024-03-02T07:37:13;100058.28;;;10.97;54.21
48527;BME280;34317;51.660;5.824;2024-03-02T07:39:43;100054.50;;;11.01;54.38
48527;BME280;34317;51.660;5.824;2024-03-02T07:42:14;100052.44;;;11.06;54.36
48527;BME280;34317;51.660;5.824;2024-03-02T07:44:44;100050.38;;;11.12;54.25
48527;BME280;34317;51.660;5.824;2024-03-02T07:47:12;100060.59;;;11.18;54.39
48527;BME280;34317;51.660;5.824;2024-03-02T07:49:40;100060.22;;;11.24;54.31
48527;BME280;34317;51.660;5.824;2024-03-02T07:52:07;100050.13;;;11.30;54.35
48527;BME280;34317;51.660;5.824;2024-03-02T07:54:35;100048.69;;;11.39;54.62
48527;BME280;34317;51.660;5.824;2024-03-02T07:57:04;100053.44;;;11.48;54.21
48527;BME280;34317;51.660;5.824;2024-03-02T07:59:31;100058.38;;;11.55;54.31
48527;BME280;34317;51.660;5.824;2024-03-02T08:01:59;100052.47;;;11.64;54.32
48527;BME280;34317;51.660;5.824;2024-03-02T08:04:27;100051.91;;;11.73;54.29
48527;BME280;34317;51.660;5.824;2024-03-02T08:06:55;100061.94;;;11.82;54.20
48527;BME280;34317;51.660;5.824;2024-03-02T08:09:22;100058.00;;;11.90;54.17
48527;BME280;34317;51.660;5.824;2024-03-02T08:11:52;100064.63;;;11.97;54.11
48527;BME280;34317;51.660;5.824;2024-03-02T08:14:19;100058.91;;;12.03;53.88
48527;BME280;34317;51.660;5.824;2024-03-02T08:16:48;100070.09;;;12.08;53.95
48527;BME280;34317;51.660;5.824;2024-03-02T08:19:16;100069.69;;;12.14;53.62
48527;BME280;34317;51.660;5.824;2024-03-02T08:21:44;100072.16;;;12.17;53.67
48527;BME280;34317;51.660;5.824;2024-03-02T08:24:11;100071.94;;;12.20;53.64
48527;BME280;34317;51.660;5.824;2024-03-02T08:26:39;100069.84;;;12.25;53.53
48527;BME280;34317;51.660;5.824;2024-03-02T08:29:06;100075.81;;;12.29;53.50
48527;BME280;34317;51.660;5.824;2024-03-02T08:31:34;100075.50;;;12.34;53.41
48527;BME280;34317;51.660;5.824;2024-03-02T08:34:04;100083.28;;;12.37;53.28
48527;BME280;34317;51.660;5.824;2024-03-02T08:36:31;100086.69;;;12.39;53.25
48527;BME280;34317;51.660;5.824;2024-03-02T08:38:58;100075.13;;;12.40;53.29
48527;BME280;34317;51.660;5.824;2024-03-02T08:41:27;100079.28;;;12.44;53.30
48527;BME280;34317;51.660;5.824;2024-03-02T08:43:54;100072.81;;;12.48;53.19
48527;BME280;34317;51.660;5.824;2024-03-02T08:46:23;100080.59;;;12.51;53.23
48527;BME280;34317;51.660;5.824;2024-03-02T08:48:50;100069.75;;;12.54;53.01
48527;BME280;34317;51.660;5.824;2024-03-02T08:51:19;100065.97;;;12.58;52.99
48527;BME280;34317;51.660;5.824;2024-03-02T08:53:46;100060.44;;;12.61;52.97
48527;BME280;34317;51.660;5.824;2024-03-02T08:56:13;100072.56;;;12.65;52.93
48527;BME280;34317;51.660;5.824;2024-03-02T08:58:43;100079.41;;;12.70;52.92
48527;BME280;34317;51.660;5.824;2024-03-02T09:01:11;100079.91;;;12.75;53.07
48527;BME280;34317;51.660;5.824;2024-03-02T09:03:39;100085.78;;;12.80;52.94
48527;BME280;34317;51.660;5.824;2024-03-02T09:06:06;100078.56;;;12.82;52.94
48527;BME280;34317;51.660;5.824;2024-03-02T09:08:33;100086.25;;;12.87;53.04
48527;BME280;34317;51.660;5.824;2024-03-02T09:11:03;100090.50;;;12.89;52.88
48527;BME280;34317;51.660;5.824;2024-03-02T09:13:33;100087.63;;;12.92;52.44
48527;BME280;34317;51.660;5.824;2024-03-02T09:16:01;100093.69;;;12.94;52.86
48527;BME280;34317;51.660;5.824;2024-03-02T09:18:28;100086.47;;;12.96;52.72
48527;BME280;34317;51.660;5.824;2024-03-02T09:20:56;100095.19;;;12.98;52.68
48527;BME280;34317;51.660;5.824;2024-03-02T09:23:24;100093.28;;;13.00;52.59
48527;BME280;34317;51.660;5.824;2024-03-02T09:25:52;100090.31;;;13.05;52.74
48527;BME280;34317;51.660;5.824;2024-03-02T09:28:20;100092.66;;;13.10;52.73
48527;BME280;34317;51.660;5.824;2024-03-02T09:30:47;100092.34;;;13.14;52.62
48527;BME280;34317;51.660;5.824;2024-03-02T09:33:16;100086.72;;;13.19;52.57
48527;BME280;34317;51.660;5.824;2024-03-02T09:35:44;100080.97;;;13.25;52.66
48527;BME280;34317;51.660;5.824;2024-03-02T09:38:11;100089.53;;;13.30;52.60
48527;BME280;34317;51.660;5.824;2024-03-02T09:40:39;100083.59;;;13.39;52.66
48527;BME280;34317;51.660;5.824;2024-03-02T09:43:07;100078.78;;;13.44;52.52
48527;BME280;34317;51.660;5.824;2024-03-02T09:45:34;100075.72;;;13.51;52.31
48527;BME280;34317;51.660;5.824;2024-03-02T09:48:02;100080.59;;;13.57;52.31
48527;BME280;34317;51.660;5.824;2024-03-02T09:50:29;100074.84;;;13.63;52.19
48527;BME280;34317;51.660;5.824;2024-03-02T09:52:57;100076.13;;;13.70;52.01
48527;BME280;34317;51.660;5.824;2024-03-02T09:55:27;100077.59;;;13.74;52.04
48527;BME280;34317;51.660;5.824;2024-03-02T09:57:55;100073.53;;;13.81;51.98
48527;BME280;34317;51.660;5.824;2024-03-02T10:00:28;100080.97;;;13.89;51.85
48527;BME280;34317;51.660;5.824;2024-03-02T10:02:55;100079.69;;;13.95;51.97
48527;BME280;34317;51.660;5.824;2024-03-02T10:05:26;100086.28;;;14.02;51.79
48527;BME280;34317;51.660;5.824;2024-03-02T10:08:02;100097.34;;;14.09;51.73
48527;BME280;34317;51.660;5.824;2024-03-02T10:10:39;100079.84;;;14.17;51.61
48527;BME280;34317;51.660;5.824;2024-03-02T10:13:10;100077.47;;;14.26;51.54
48527;BME280;34317;51.660;5.824;2024-03-02T10:15:38;100071.72;;;14.32;51.42
48527;BME280;34317;51.660;5.824;2024-03-02T10:18:09;100079.25;;;14.38;51.39
48527;BME280;34317;51.660;5.824;2024-03-02T10:20:40;100071.66;;;14.45;51.42
48527;BME280;34317;51.660;5.824;2024-03-02T10:23:12;100058.00;;;14.49;51.17
48527;BME280;34317;51.660;5.824;2024-03-02T10:25:39;100062.88;;;14.55;51.00
48527;BME280;34317;51.660;5.824;2024-03-02T10:28:20;100071.41;;;14.60;50.94
48527;BME280;34317;51.660;5.824;2024-03-02T10:30:49;100065.63;;;14.67;50.80
48527;BME280;34317;51.660;5.824;2024-03-02T10:33:18;100063.47;;;14.72;50.77
48527;BME280;34317;51.660;5.824;2024-03-02T10:35:48;100052.59;;;14.75;50.62
48527;BME280;34317;51.660;5.824;2024-03-02T10:38:17;100046.78;;;14.81;50.35
48527;BME280;34317;51.660;5.824;2024-03-02T10:40:48;100037.59;;;14.85;50.57
48527;BME280;34317;51.660;5.824;2024-03-02T10:43:17;100035.44;;;14.90;50.52
48527;BME280;34317;51.660;5.824;2024-03-02T10:45:47;100047.31;;;14.97;50.35
48527;BME280;34317;51.660;5.824;2024-03-02T10:48:16;100040.53;;;15.05;50.42
48527;BME280;34317;51.660;5.824;2024-03-02T10:50:43;100048.09;;;15.11;50.38
48527;BME280;34317;51.660;5.824;2024-03-02T10:53:11;100053.16;;;15.14;50.13
48527;BME280;34317;51.660;5.824;2024-03-02T10:55:38;100043.94;;;15.18;49.98
48527;BME280;34317;51.660;5.824;2024-03-02T10:58:06;100043.72;;;15.21;49.94
48527;BME280;34317;51.660;5.824;2024-03-02T11:00:37;100046.91;;;15.26;49.71
48527;BME280;34317;51.660;5.824;2024-03-02T11:03:07;100035.97;;;15.29;49.61
48527;BME280;34317;51.660;5.824;2024-03-02T11:05:41;100037.44;;;15.33;49.74
48527;BME280;34317;51.660;5.824;2024-03-02T11:08:17;100035.03;;;15.42;49.75
48527;BME280;34317;51.660;5.824;2024-03-02T11:11:06;100037.94;;;15.50;49.67
48527;BME280;34317;51.660;5.824;2024-03-02T11:13:34;100033.81;;;15.57;49.69
48527;BME280;34317;51.660;5.824;2024-03-02T11:16:09;100033.31;;;15.63;49.42
48527;BME280;34317;51.660;5.824;2024-03-02T11:18:40;100043.28;;;15.72;49.56
48527;BME280;34317;51.660;5.824;2024-03-02T11:21:09;100034.81;;;15.79;49.34
48527;BME280;34317;51.660;5.824;2024-03-02T11:23:36;100024.59;;;15.84;48.98
48527;BME280;34317;51.660;5.824;2024-03-02T11:26:20;100024.59;;;15.84;48.92
48527;BME280;34317;51.660;5.824;2024-03-02T11:28:48;100027.75;;;15.89;48.99
48527;BME280;34317;51.660;5.824;2024-03-02T11:31:15;100025.56;;;15.94;48.85
48527;BME280;34317;51.660;5.824;2024-03-02T11:33:42;100023.13;;;16.02;48.81
48527;BME280;34317;51.660;5.824;2024-03-02T11:36:10;100027.97;;;16.08;48.67
48527;BME280;34317;51.660;5.824;2024-03-02T11:38:43;100027.72;;;16.11;48.20
48527;BME280;34317;51.660;5.824;2024-03-02T11:41:11;100025.66;;;16.15;48.12
48527;BME280;34317;51.660;5.824;2024-03-02T11:43:39;100033.44;;;16.18;48.03
48527;BME280;34317;51.660;5.824;2024-03-02T11:46:07;100025.97;;;16.22;48.12
48527;BME280;34317;51.660;5.824;2024-03-02T11:48:38;100014.81;;;16.28;48.08
48527;BME280;34317;51.660;5.824;2024-03-02T11:51:06;100010.66;;;16.35;48.02
48527;BME280;34317;51.660;5.824;2024-03-02T11:53:35;100011.13;;;16.40;47.91
48527;BME280;34317;51.660;5.824;2024-03-02T11:56:03;100002.59;;;16.46;47.70
48527;BME280;34317;51.660;5.824;2024-03-02T11:58:35;100003.78;;;16.53;47.77
48527;BME280;34317;51.660;5.824;2024-03-02T12:01:03;100005.66;;;16.63;47.71
48527;BME280;34317;51.660;5.824;2024-03-02T12:03:34;100001.75;;;16.67;47.36
48527;BME280;34317;51.660;5.824;2024-03-02T12:06:02;100001.25;;;16.73;47.44
48527;BME280;34317;51.660;5.824;2024-03-02T12:08:30;99997.09;;;16.80;47.50
48527;BME280;34317;51.660;5.824;2024-03-02T12:11:00;99992.22;;;16.85;47.58
48527;BME280;34317;51.660;5.824;2024-03-02T12:13:30;99989.03;;;16.91;47.49
48527;BME280;34317;51.660;5.824;2024-03-02T12:15:57;99990.47;;;16.96;47.34
48527;BME280;34317;51.660;5.824;2024-03-02T12:18:25;99981.19;;;17.00;46.97
48527;BME280;34317;51.660;5.824;2024-03-02T12:20:53;99982.88;;;17.01;46.90
48527;BME280;34317;51.660;5.824;2024-03-02T12:23:25;99982.88;;;17.01;46.93
48527;BME280;34317;51.660;5.824;2024-03-02T12:25:53;99977.53;;;17.01;46.79
48527;BME280;34317;51.660;5.824;2024-03-02T12:28:22;99981.91;;;17.02;46.80
48527;BME280;34317;51.660;5.824;2024-03-02T12:30:50;99971.91;;;17.04;46.57
48527;BME280;34317;51.660;5.824;2024-03-02T12:33:17;99966.56;;;17.04;46.52
48527;BME280;34317;51.660;5.824;2024-03-02T12:35:45;99965.44;;;17.06;46.73
48527;BME280;34317;51.660;5.824;2024-03-02T12:38:14;99957.28;;;17.08;46.36
48527;BME280;34317;51.660;5.824;2024-03-02T12:40:41;99955.34;;;17.10;46.40
48527;BME280;34317;51.660;5.824;2024-03-02T12:43:08;99954.25;;;17.12;46.53
48527;BME280;34317;51.660;5.824;2024-03-02T12:45:36;99955.53;;;17.18;46.62
48527;BME280;34317;51.660;5.824;2024-03-02T12:48:04;99946.97;;;17.24;46.59
48527;BME280;34317;51.660;5.824;2024-03-02T12:50:33;99934.75;;;17.31;46.49
48527;BME280;34317;51.660;5.824;2024-03-02T12:53:01;99938.84;;;17.36;46.10
48527;BME280;34317;51.660;5.824;2024-03-02T12:55:29;99931.50;;;17.38;45.95
48527;BME280;34317;51.660;5.824;2024-03-02T12:57:57;99936.63;;;17.41;46.10
48527;BME280;34317;51.660;5.824;2024-03-02T13:00:26;99928.28;;;17.44;45.97
48527;BME280;34317;51.660;5.824;2024-03-02T13:02:56;99917.75;;;17.42;45.80
48527;BME280;34317;51.660;5.824;2024-03-02T13:05:32;99933.66;;;17.44;46.32
48527;BME280;34317;51.660;5.824;2024-03-02T13:07:59;99926.19;;;17.47;45.96